Time;durP1;ratioP1;P1;durP2;ratioP2;P2;SDS_P1;SDS_P2;PMS_P1;PMS_P2;Temp;Humidity;BMP_temperature;BMP_pressure;BME280_temperature;BME280_humidity;BME280_pressure;Samples;Min_cycle;Max_cycle;Signal;HPM_P1;HPM_P2
2021/07/07 00:00:43;;;;;;;;;3.00;1.00;;;;;;;;5051175;28;46587;-78
2021/07/07 00:03:08;;;;;;;;;3.33;2.00;;;;;;;;5052270;28;45358;-77
2021/07/07 00:05:33;;;;;;;;;2.00;2.00;;;;;;;;5042107;28;46562;-78
2021/07/07 00:07:59;;;;;;;;;3.00;2.00;;;;;;;;5061254;28;45505;-78
2021/07/07 00:10:24;;;;;;;;;3.00;3.00;;;;;;;;5061939;28;45442;-77
2021/07/07 00:12:49;;;;;;;;;4.33;2.00;;;;;;;;5056518;28;45415;-77
2021/07/07 00:15:16;;;;;;;;;2.00;2.00;;;;;;;;5052348;28;45924;-78
2021/07/07 00:17:42;;;;;;;;;2.25;2.25;;;;;;;;5061153;28;45340;-77
2021/07/07 00:20:09;;;;;;;;;5.75;2.50;;;;;;;;5062508;28;45499;-76
2021/07/07 00:22:34;;;;;;;;;4.25;3.00;;;;;;;;5062220;27;45602;-76
2021/07/07 00:25:00;;;;;;;;;2.00;2.00;;;;;;;;5051654;28;48487;-75
2021/07/07 00:27:25;;;;;;;;;3.50;2.00;;;;;;;;5055500;28;45458;-75
2021/07/07 00:29:51;;;;;;;;;3.00;1.00;;;;;;;;5057473;28;45293;-76
2021/07/07 00:32:18;;;;;;;;;4.00;2.00;;;;;;;;5054090;28;45424;-76
2021/07/07 00:34:43;;;;;;;;;2.00;2.00;;;;;;;;5059880;28;45975;-76
2021/07/07 00:37:09;;;;;;;;;2.00;2.00;;;;;;;;5056502;28;45346;-78
2021/07/07 00:39:34;;;;;;;;;2.00;1.33;;;;;;;;5054360;28;45566;-76
2021/07/07 00:41:59;;;;;;;;;1.67;1.00;;;;;;;;5056353;28;45657;-75
2021/07/07 00:44:24;;;;;;;;;2.67;2.67;;;;;;;;5053147;28;48387;-78
2021/07/07 00:46:50;;;;;;;;;3.00;3.00;;;;;;;;5053167;28;45478;-77
2021/07/07 00:49:16;;;;;;;;;2.50;2.50;;;;;;;;5055056;28;45305;-77
2021/07/07 00:51:42;;;;;;;;;4.25;2.75;;;;;;;;5053715;28;45532;-77
2021/07/07 00:54:08;;;;;;;;;4.33;3.00;;;;;;;;5052635;28;45568;-77
2021/07/07 00:56:36;;;;;;;;;1.50;1.50;;;;;;;;5054850;28;45736;-77
2021/07/07 00:59:02;;;;;;;;;4.75;3.00;;;;;;;;5055772;28;45410;-77
2021/07/07 01:01:27;;;;;;;;;4.00;3.00;;;;;;;;5052604;28;45455;-77
2021/07/07 01:03:53;;;;;;;;;4.00;2.75;;;;;;;;5052428;28;46352;-77
2021/07/07 01:06:18;;;;;;;;;2.50;2.50;;;;;;;;5052277;28;45528;-77
2021/07/07 01:08:43;;;;;;;;;6.00;2.00;;;;;;;;5058168;28;45280;-79
2021/07/07 01:11:08;;;;;;;;;6.67;2.33;;;;;;;;5057001;28;45521;-77
2021/07/07 01:13:34;;;;;;;;;4.67;3.00;;;;;;;;5060257;28;46463;-78
2021/07/07 01:16:02;;;;;;;;;3.00;3.00;;;;;;;;5057186;28;45501;-75
2021/07/07 01:18:28;;;;;;;;;3.00;3.00;;;;;;;;5054394;28;45620;-77
2021/07/07 01:20:53;;;;;;;;;5.00;2.00;;;;;;;;5061286;28;45567;-77
2021/07/07 01:23:18;;;;;;;;;2.00;2.00;;;;;;;;5051906;28;45478;-77
2021/07/07 01:25:44;;;;;;;;;4.75;2.75;;;;;;;;5058160;28;45534;-78
2021/07/07 01:28:09;;;;;;;;;2.00;2.00;;;;;;;;5058204;28;45451;-81
2021/07/07 01:30:34;;;;;;;;;4.25;2.00;;;;;;;;5049131;28;45780;-77
2021/07/07 01:33:00;;;;;;;;;7.33;2.33;;;;;;;;5051730;28;45465;-77
2021/07/07 01:35:25;;;;;;;;;3.75;2.00;;;;;;;;5060876;28;45404;-77
2021/07/07 01:37:51;;;;;;;;;3.00;2.00;;;;;;;;5062717;28;45637;-77
2021/07/07 01:40:24;;;;;;;;;2.75;2.75;;;;;;;;5056125;28;45395;-77
2021/07/07 01:42:50;;;;;;;;;2.75;2.50;;;;;;;;5052808;28;47342;-78
2021/07/07 01:45:17;;;;;;;;;2.50;2.00;;;;;;;;5051775;28;45288;-77
2021/07/07 01:47:42;;;;;;;;;4.00;4.00;;;;;;;;5051412;28;45500;-77
2021/07/07 01:50:09;;;;;;;;;2.00;2.00;;;;;;;;5063043;28;45853;-76
2021/07/07 01:52:34;;;;;;;;;4.00;2.50;;;;;;;;5052758;28;46620;-77
2021/07/07 01:55:00;;;;;;;;;4.00;3.00;;;;;;;;5058592;28;45374;-76
2021/07/07 01:57:26;;;;;;;;;3.50;3.50;;;;;;;;5052648;27;45574;-77
2021/07/07 01:59:51;;;;;;;;;3.25;2.25;;;;;;;;5052136;28;45536;-76
2021/07/07 02:02:16;;;;;;;;;3.00;1.75;;;;;;;;5050421;28;46149;-76
2021/07/07 02:04:42;;;;;;;;;3.00;3.00;;;;;;;;5050940;28;45789;-77
2021/07/07 02:07:07;;;;;;;;;4.00;2.00;;;;;;;;5053262;28;45486;-77
2021/07/07 02:09:32;;;;;;;;;6.00;4.00;;;;;;;;5054142;28;45513;-77
2021/07/07 02:11:57;;;;;;;;;2.33;1.67;;;;;;;;5051623;28;47096;-77
2021/07/07 02:14:22;;;;;;;;;4.00;3.00;;;;;;;;5054813;28;45464;-78
2021/07/07 02:16:48;;;;;;;;;5.00;2.67;;;;;;;;5060074;28;45482;-79
2021/07/07 02:19:13;;;;;;;;;4.67;3.33;;;;;;;;5060145;28;45493;-77
2021/07/07 02:21:38;;;;;;;;;4.75;3.00;;;;;;;;5054075;28;45473;-77
2021/07/07 02:24:04;;;;;;;;;4.00;3.00;;;;;;;;5050339;28;45326;-77
2021/07/07 02:26:29;;;;;;;;;2.00;2.00;;;;;;;;5058218;27;45738;-78
2021/07/07 02:28:55;;;;;;;;;6.00;3.00;;;;;;;;5058445;28;45613;-77
2021/07/07 02:31:20;;;;;;;;;3.00;3.00;;;;;;;;5052558;28;48853;-77
2021/07/07 02:33:45;;;;;;;;;7.00;3.00;;;;;;;;5052041;28;45605;-77
2021/07/07 02:36:10;;;;;;;;;5.00;3.00;;;;;;;;5050020;28;45281;-77
2021/07/07 02:38:36;;;;;;;;;5.00;4.33;;;;;;;;5051665;28;45430;-77
2021/07/07 02:41:01;;;;;;;;;3.50;3.50;;;;;;;;5049712;28;47247;-77
2021/07/07 02:43:26;;;;;;;;;4.00;3.00;;;;;;;;5064337;28;45336;-77
2021/07/07 02:45:52;;;;;;;;;3.25;3.00;;;;;;;;5053004;27;45460;-76
2021/07/07 02:48:17;;;;;;;;;4.00;3.00;;;;;;;;5048803;28;45395;-76
2021/07/07 02:50:43;;;;;;;;;5.00;2.00;;;;;;;;5049097;28;45441;-77
2021/07/07 02:53:09;;;;;;;;;3.00;3.00;;;;;;;;5053008;28;45517;-77
2021/07/07 02:55:35;;;;;;;;;4.25;2.00;;;;;;;;5063473;28;45528;-77
2021/07/07 02:58:04;;;;;;;;;4.00;2.50;;;;;;;;5054859;28;45406;-77
2021/07/07 03:00:34;;;;;;;;;4.50;3.75;;;;;;;;5050583;28;48223;-77
2021/07/07 03:03:01;;;;;;;;;4.50;2.75;;;;;;;;5041733;28;45830;-75
2021/07/07 03:05:27;;;;;;;;;5.00;3.00;;;;;;;;5059446;28;45314;-75
2021/07/07 03:07:52;;;;;;;;;3.00;2.50;;;;;;;;5051050;28;45698;-77
2021/07/07 03:10:17;;;;;;;;;4.00;2.25;;;;;;;;5056775;28;45534;-78
2021/07/07 03:12:43;;;;;;;;;5.00;3.00;;;;;;;;5054489;28;45643;-77
2021/07/07 03:15:08;;;;;;;;;3.75;2.75;;;;;;;;5054225;27;45509;-77
2021/07/07 03:17:34;;;;;;;;;5.75;2.50;;;;;;;;5062286;28;45386;-76
2021/07/07 03:19:59;;;;;;;;;4.33;3.00;;;;;;;;5055205;28;46015;-80
2021/07/07 03:22:24;;;;;;;;;4.33;3.33;;;;;;;;5060042;28;45414;-76
2021/07/07 03:24:49;;;;;;;;;3.00;3.00;;;;;;;;5058877;28;45704;-77
2021/07/07 03:27:15;;;;;;;;;6.25;3.25;;;;;;;;5060980;28;45454;-78
2021/07/07 03:29:40;;;;;;;;;3.50;3.50;;;;;;;;5063314;28;46255;-78
2021/07/07 03:32:05;;;;;;;;;3.00;3.00;;;;;;;;5052900;28;45532;-78
2021/07/07 03:34:31;;;;;;;;;4.00;4.00;;;;;;;;5060054;28;45690;-77
2021/07/07 03:36:56;;;;;;;;;5.00;3.50;;;;;;;;5054019;28;45500;-77
2021/07/07 03:39:21;;;;;;;;;6.75;3.25;;;;;;;;5056473;28;45407;-78
2021/07/07 03:41:46;;;;;;;;;4.33;3.00;;;;;;;;5052877;28;45410;-77
2021/07/07 03:44:12;;;;;;;;;4.00;2.33;;;;;;;;5055072;28;45430;-77
2021/07/07 03:46:37;;;;;;;;;4.00;2.75;;;;;;;;5061059;28;45456;-77
2021/07/07 03:49:02;;;;;;;;;3.67;3.00;;;;;;;;5060564;28;45421;-77
2021/07/07 03:51:27;;;;;;;;;5.00;4.00;;;;;;;;5060369;28;45407;-77
2021/07/07 03:53:53;;;;;;;;;2.67;2.67;;;;;;;;5052460;28;45448;-76
2021/07/07 03:56:18;;;;;;;;;6.00;3.33;;;;;;;;5054727;28;46789;-76
2021/07/07 03:58:43;;;;;;;;;4.00;2.67;;;;;;;;5057307;28;46035;-77
2021/07/07 04:01:08;;;;;;;;;3.67;3.00;;;;;;;;5061837;28;45383;-77
2021/07/07 04:03:33;;;;;;;;;5.00;4.00;;;;;;;;5056340;28;45432;-77
2021/07/07 04:05:59;;;;;;;;;4.67;3.00;;;;;;;;5057996;28;45539;-76
2021/07/07 04:08:24;;;;;;;;;4.00;2.33;;;;;;;;5056755;28;45474;-77
2021/07/07 04:10:49;;;;;;;;;4.67;3.00;;;;;;;;5057336;28;45819;-78
2021/07/07 04:13:14;;;;;;;;;3.67;3.00;;;;;;;;5058827;28;45514;-78
2021/07/07 04:15:40;;;;;;;;;4.33;3.00;;;;;;;;5055113;28;45359;-77
2021/07/07 04:18:08;;;;;;;;;5.00;3.50;;;;;;;;5055850;27;45529;-77
2021/07/07 04:20:34;;;;;;;;;5.25;4.00;;;;;;;;5051251;28;45571;-77
2021/07/07 04:22:59;;;;;;;;;5.00;4.00;;;;;;;;5062814;28;45816;-77
2021/07/07 04:25:24;;;;;;;;;6.00;4.00;;;;;;;;5060620;28;45426;-77
2021/07/07 04:27:49;;;;;;;;;4.00;4.00;;;;;;;;5053188;28;48094;-77
2021/07/07 04:30:16;;;;;;;;;5.67;3.00;;;;;;;;5051842;28;45410;-76
2021/07/07 04:32:41;;;;;;;;;4.50;2.75;;;;;;;;5054601;28;45505;-76
2021/07/07 04:35:07;;;;;;;;;4.25;2.50;;;;;;;;5058443;28;45583;-76
2021/07/07 04:37:32;;;;;;;;;4.00;3.25;;;;;;;;5053058;28;47761;-78
2021/07/07 04:39:57;;;;;;;;;8.75;3.25;;;;;;;;5053453;28;45344;-78
2021/07/07 04:42:23;;;;;;;;;4.33;3.00;;;;;;;;5051467;28;45401;-77
2021/07/07 04:44:48;;;;;;;;;3.33;3.00;;;;;;;;5054733;28;45271;-77
2021/07/07 04:47:13;;;;;;;;;4.50;3.25;;;;;;;;5053342;28;46034;-77
2021/07/07 04:49:38;;;;;;;;;5.00;4.67;;;;;;;;5055096;28;45412;-77
2021/07/07 04:52:04;;;;;;;;;7.33;3.67;;;;;;;;5053864;28;45349;-77
2021/07/07 04:54:32;;;;;;;;;3.50;2.25;;;;;;;;5055691;28;45462;-77
2021/07/07 04:56:57;;;;;;;;;8.25;4.75;;;;;;;;5053330;28;48614;-78
2021/07/07 04:59:22;;;;;;;;;5.75;4.00;;;;;;;;5054358;28;45502;-77
2021/07/07 05:01:47;;;;;;;;;3.75;3.75;;;;;;;;5052598;28;45438;-77
2021/07/07 05:04:13;;;;;;;;;3.00;3.00;;;;;;;;5058752;28;45472;-77
2021/07/07 05:06:38;;;;;;;;;4.75;4.75;;;;;;;;5055440;28;45435;-77
2021/07/07 05:09:03;;;;;;;;;5.33;3.33;;;;;;;;5048655;28;45462;-78
2021/07/07 05:11:29;;;;;;;;;7.50;4.00;;;;;;;;5064768;28;45469;-78
2021/07/07 05:13:54;;;;;;;;;3.67;3.67;;;;;;;;5052280;28;45858;-78
2021/07/07 05:16:19;;;;;;;;;4.00;4.00;;;;;;;;5052779;28;45529;-77
2021/07/07 05:18:45;;;;;;;;;4.50;3.50;;;;;;;;5049651;28;45597;-78
2021/07/07 05:21:12;;;;;;;;;8.25;3.00;;;;;;;;5045905;28;45354;-78
2021/07/07 05:23:37;;;;;;;;;4.75;4.00;;;;;;;;5053393;28;45349;-77
2021/07/07 05:26:03;;;;;;;;;5.00;4.33;;;;;;;;5062208;28;45433;-78
2021/07/07 05:28:29;;;;;;;;;5.00;3.00;;;;;;;;5051953;28;46061;-78
2021/07/07 05:30:57;;;;;;;;;4.00;4.00;;;;;;;;5052323;28;45489;-78
2021/07/07 05:33:22;;;;;;;;;4.75;3.75;;;;;;;;5052820;28;45469;-76
2021/07/07 05:35:47;;;;;;;;;5.25;4.75;;;;;;;;5051391;27;48970;-77
2021/07/07 05:38:13;;;;;;;;;5.67;5.00;;;;;;;;5051037;28;45371;-78
2021/07/07 05:40:38;;;;;;;;;4.33;4.33;;;;;;;;5053645;28;45648;-78
2021/07/07 05:43:03;;;;;;;;;8.33;4.00;;;;;;;;5059559;28;45752;-78
2021/07/07 05:45:29;;;;;;;;;5.00;3.00;;;;;;;;5054854;27;46400;-78
2021/07/07 05:47:55;;;;;;;;;6.25;3.50;;;;;;;;5050186;28;45520;-78
2021/07/07 05:50:21;;;;;;;;;6.75;4.00;;;;;;;;5052512;28;45872;-77
2021/07/07 05:52:46;;;;;;;;;4.00;3.25;;;;;;;;5053986;28;45321;-79
2021/07/07 05:55:12;;;;;;;;;6.00;4.67;;;;;;;;5061785;28;47313;-77
2021/07/07 05:57:37;;;;;;;;;9.00;4.75;;;;;;;;5054526;27;45518;-78
2021/07/07 06:00:11;;;;;;;;;6.00;4.50;;;;;;;;5053195;28;45500;-77
2021/07/07 06:02:36;;;;;;;;;4.75;4.75;;;;;;;;5051609;28;45572;-77
2021/07/07 06:05:02;;;;;;;;;4.75;4.00;;;;;;;;5058803;28;46062;-77
2021/07/07 06:07:27;;;;;;;;;3.00;3.00;;;;;;;;5063567;28;45471;-78
2021/07/07 06:09:52;;;;;;;;;5.00;3.50;;;;;;;;5050220;27;46050;-77
2021/07/07 06:12:18;;;;;;;;;6.67;5.00;;;;;;;;5046792;28;45368;-78
2021/07/07 06:14:43;;;;;;;;;6.25;3.50;;;;;;;;5047747;28;45449;-78
2021/07/07 06:17:08;;;;;;;;;9.00;5.00;;;;;;;;5044373;28;45511;-77
2021/07/07 06:19:34;;;;;;;;;7.00;4.00;;;;;;;;5039141;28;45531;-77
2021/07/07 06:22:01;;;;;;;;;8.00;5.50;;;;;;;;5058756;28;45338;-76
2021/07/07 06:24:27;;;;;;;;;4.50;4.50;;;;;;;;5056032;27;45469;-75
2021/07/07 06:26:52;;;;;;;;;8.50;6.00;;;;;;;;5059380;27;45537;-79
2021/07/07 06:29:17;;;;;;;;;5.75;5.75;;;;;;;;5058362;28;45486;-76
2021/07/07 06:31:43;;;;;;;;;5.00;5.00;;;;;;;;5055916;28;45335;-76
2021/07/07 06:34:09;;;;;;;;;7.50;5.25;;;;;;;;5056028;28;47658;-76
2021/07/07 06:36:34;;;;;;;;;4.75;4.25;;;;;;;;5051651;28;45736;-76
2021/07/07 06:38:59;;;;;;;;;6.67;5.33;;;;;;;;5073462;27;45465;-76
2021/07/07 06:41:24;;;;;;;;;6.00;4.67;;;;;;;;5059166;28;45493;-76
2021/07/07 06:43:49;;;;;;;;;8.00;4.67;;;;;;;;5052900;28;45878;-76
2021/07/07 06:46:15;;;;;;;;;6.67;6.67;;;;;;;;5056389;28;45362;-77
2021/07/07 06:48:40;;;;;;;;;8.33;5.33;;;;;;;;5054616;28;45472;-76
2021/07/07 06:51:05;;;;;;;;;5.50;5.25;;;;;;;;5052909;28;45486;-76
2021/07/07 06:53:30;;;;;;;;;7.00;5.00;;;;;;;;5058104;28;46695;-77
2021/07/07 06:55:56;;;;;;;;;5.00;4.00;;;;;;;;5064478;28;45663;-78
2021/07/07 06:58:21;;;;;;;;;4.67;4.67;;;;;;;;5058384;28;45494;-76
2021/07/07 07:00:46;;;;;;;;;9.00;6.00;;;;;;;;5054604;28;45534;-74
2021/07/07 07:03:11;;;;;;;;;7.00;6.00;;;;;;;;5053827;28;45957;-75
2021/07/07 07:05:37;;;;;;;;;6.33;6.00;;;;;;;;5054591;28;46838;-75
2021/07/07 07:08:02;;;;;;;;;8.00;5.33;;;;;;;;5059789;28;45399;-75
2021/07/07 07:10:28;;;;;;;;;5.50;5.25;;;;;;;;5061745;28;46430;-74
2021/07/07 07:12:53;;;;;;;;;5.00;5.00;;;;;;;;5059166;28;45317;-74
2021/07/07 07:15:18;;;;;;;;;6.50;4.00;;;;;;;;5057350;28;45609;-74
2021/07/07 07:17:43;;;;;;;;;8.33;5.67;;;;;;;;5052646;28;45528;-74
2021/07/07 07:20:10;;;;;;;;;6.00;6.00;;;;;;;;5052666;28;48881;-73
2021/07/07 07:22:36;;;;;;;;;8.00;6.00;;;;;;;;5057019;28;45990;-74
2021/07/07 07:25:01;;;;;;;;;7.25;6.00;;;;;;;;5059366;28;45625;-74
2021/07/07 07:27:27;;;;;;;;;10.00;6.00;;;;;;;;5058139;27;45395;-75
2021/07/07 07:29:52;;;;;;;;;5.25;4.25;;;;;;;;5059074;28;45780;-74
2021/07/07 07:32:17;;;;;;;;;4.00;4.00;;;;;;;;5047289;28;47191;-74
2021/07/07 07:34:42;;;;;;;;;5.00;4.33;;;;;;;;5054767;28;45409;-74
2021/07/07 07:37:13;;;;;;;;;6.25;4.50;;;;;;;;5059735;28;45765;-73
2021/07/07 07:39:46;;;;;;;;;6.75;5.00;;;;;;;;5058164;28;45538;-74
2021/07/07 07:42:12;;;;;;;;;7.75;6.00;;;;;;;;5058772;27;46421;-73
2021/07/07 07:44:38;;;;;;;;;13.25;5.50;;;;;;;;5054403;28;45753;-74
2021/07/07 07:47:03;;;;;;;;;6.75;5.00;;;;;;;;5057190;28;46262;-74
2021/07/07 07:49:28;;;;;;;;;7.50;5.00;;;;;;;;5059117;28;45292;-74
2021/07/07 07:51:54;;;;;;;;;4.00;4.00;;;;;;;;5058462;28;45947;-74
2021/07/07 07:54:19;;;;;;;;;4.75;3.25;;;;;;;;5058412;27;45629;-73
2021/07/07 07:56:44;;;;;;;;;5.50;5.50;;;;;;;;5062169;27;45371;-74
2021/07/07 07:59:10;;;;;;;;;6.67;5.00;;;;;;;;5063073;28;45543;-73
2021/07/07 08:01:35;;;;;;;;;6.00;4.75;;;;;;;;5055471;28;45663;-74
2021/07/07 08:04:01;;;;;;;;;7.00;5.00;;;;;;;;5059442;28;45488;-77
2021/07/07 08:06:26;;;;;;;;;5.00;4.25;;;;;;;;5053442;28;48864;-78
2021/07/07 08:08:53;;;;;;;;;7.00;4.33;;;;;;;;5061197;28;45540;-76
2021/07/07 08:11:19;;;;;;;;;6.75;5.50;;;;;;;;5063350;28;47030;-79
2021/07/07 08:13:44;;;;;;;;;4.67;3.00;;;;;;;;5065254;28;45559;-76
2021/07/07 08:16:09;;;;;;;;;7.50;6.00;;;;;;;;5061995;28;45601;-78
2021/07/07 08:18:34;;;;;;;;;6.25;4.50;;;;;;;;5059526;28;45497;-77
2021/07/07 08:21:00;;;;;;;;;5.00;4.00;;;;;;;;5059738;28;45417;-80
2021/07/07 08:23:25;;;;;;;;;5.33;4.00;;;;;;;;5063289;28;45714;-80
2021/07/07 08:25:52;;;;;;;;;5.33;4.67;;;;;;;;5063220;28;45248;-79
2021/07/07 08:28:17;;;;;;;;;4.25;4.25;;;;;;;;5041535;28;45530;-81
2021/07/07 08:30:42;;;;;;;;;4.67;3.67;;;;;;;;5051216;28;46209;-77
2021/07/07 08:33:07;;;;;;;;;6.67;3.67;;;;;;;;5039621;28;45465;-78
2021/07/07 08:35:33;;;;;;;;;6.00;4.33;;;;;;;;5053477;28;45354;-77
2021/07/07 08:37:58;;;;;;;;;6.75;4.00;;;;;;;;5061855;28;45574;-80
2021/07/07 08:40:25;;;;;;;;;4.67;4.00;;;;;;;;5066694;28;45404;-81
2021/07/07 08:42:50;;;;;;;;;6.50;3.25;;;;;;;;5059123;27;45716;-82
2021/07/07 08:45:17;;;;;;;;;4.50;4.00;;;;;;;;5059527;27;45430;-72
2021/07/07 08:47:44;;;;;;;;;5.00;3.50;;;;;;;;5062095;27;45419;-82
2021/07/07 08:50:11;;;;;;;;;4.50;3.50;;;;;;;;5062619;28;47162;-79
2021/07/07 08:52:38;;;;;;;;;3.50;2.00;;;;;;;;5065525;28;45349;-79
2021/07/07 08:55:03;;;;;;;;;3.25;3.00;;;;;;;;5052818;28;45479;-78
2021/07/07 08:57:28;;;;;;;;;2.00;2.00;;;;;;;;5049982;28;45383;-81
2021/07/07 08:59:54;;;;;;;;;3.00;2.67;;;;;;;;5050367;28;46370;-76
2021/07/07 09:02:19;;;;;;;;;5.50;3.00;;;;;;;;5051440;28;45817;-76
2021/07/07 09:04:46;;;;;;;;;3.50;3.00;;;;;;;;5051081;28;45540;-74
2021/07/07 09:07:15;;;;;;;;;5.00;4.00;;;;;;;;5051738;28;45447;-75
2021/07/07 09:09:45;;;;;;;;;4.00;4.00;;;;;;;;5050311;28;46116;-76
2021/07/07 09:12:12;;;;;;;;;5.00;3.75;;;;;;;;5050305;28;45510;-74
2021/07/07 09:14:37;;;;;;;;;3.50;3.50;;;;;;;;5051433;28;45348;-73
2021/07/07 09:17:09;;;;;;;;;3.33;3.00;;;;;;;;5059076;28;45379;-75
2021/07/07 09:19:37;;;;;;;;;8.25;4.00;;;;;;;;5041133;28;46250;-75
2021/07/07 09:22:06;;;;;;;;;4.25;4.25;;;;;;;;5054001;28;45831;-73
2021/07/07 09:24:31;;;;;;;;;7.00;5.00;;;;;;;;5051558;28;45570;-74
2021/07/07 09:27:01;;;;;;;;;5.25;3.75;;;;;;;;5051279;28;45328;-74
2021/07/07 09:29:34;;;;;;;;;4.50;4.50;;;;;;;;5050733;28;45437;-74
2021/07/07 09:32:11;;;;;;;;;4.75;3.50;;;;;;;;5046506;28;45687;-74
2021/07/07 09:34:38;;;;;;;;;7.00;5.00;;;;;;;;5051528;28;45350;-73
2021/07/07 09:37:06;;;;;;;;;6.00;5.25;;;;;;;;5052676;28;49099;-74
2021/07/07 09:39:31;;;;;;;;;3.00;3.00;;;;;;;;5053105;28;46165;-71
2021/07/07 09:41:56;;;;;;;;;4.67;3.67;;;;;;;;5049586;28;45394;-74
2021/07/07 09:44:22;;;;;;;;;5.00;5.00;;;;;;;;5050923;28;45526;-73
2021/07/07 09:46:47;;;;;;;;;3.50;2.75;;;;;;;;5052014;28;45274;-74
2021/07/07 09:49:13;;;;;;;;;4.33;4.33;;;;;;;;5050439;28;45625;-73
2021/07/07 09:51:38;;;;;;;;;5.00;5.00;;;;;;;;5049045;28;45622;-74
2021/07/07 09:54:05;;;;;;;;;7.50;5.50;;;;;;;;5051094;28;45785;-74
2021/07/07 09:56:30;;;;;;;;;5.25;5.25;;;;;;;;5049298;28;45568;-75
2021/07/07 09:58:56;;;;;;;;;5.00;3.75;;;;;;;;5049006;28;46983;-74
2021/07/07 10:01:22;;;;;;;;;5.25;5.25;;;;;;;;5052153;28;45402;-76
2021/07/07 10:03:47;;;;;;;;;6.25;5.00;;;;;;;;5047151;28;45477;-74
2021/07/07 10:06:14;;;;;;;;;6.00;4.00;;;;;;;;5047980;28;45555;-73
2021/07/07 10:08:40;;;;;;;;;5.25;4.25;;;;;;;;5050362;28;45919;-75
2021/07/07 10:11:06;;;;;;;;;8.50;5.75;;;;;;;;5049424;28;45758;-76
2021/07/07 10:13:32;;;;;;;;;5.50;5.00;;;;;;;;5050076;28;45371;-74
2021/07/07 10:15:57;;;;;;;;;4.50;4.50;;;;;;;;5052140;28;45518;-74
2021/07/07 10:18:23;;;;;;;;;8.25;5.00;;;;;;;;5045711;28;46210;-74
2021/07/07 10:20:49;;;;;;;;;5.25;3.75;;;;;;;;5047660;28;45430;-74
2021/07/07 10:23:15;;;;;;;;;7.00;5.75;;;;;;;;5048156;28;45497;-74
2021/07/07 10:25:41;;;;;;;;;4.00;4.00;;;;;;;;5052067;28;45353;-75
2021/07/07 10:28:08;;;;;;;;;5.25;5.25;;;;;;;;5055919;28;46113;-74
2021/07/07 10:30:54;;;;;;;;;4.00;4.00;;;;;;;;5040869;28;45449;-74
2021/07/07 10:33:20;;;;;;;;;4.50;3.75;;;;;;;;5045518;28;45547;-74
2021/07/07 10:35:46;;;;;;;;;6.00;6.00;;;;;;;;5048901;28;45266;-74
2021/07/07 10:38:11;;;;;;;;;5.00;3.25;;;;;;;;5048970;28;46542;-76
2021/07/07 10:40:40;;;;;;;;;3.50;3.50;;;;;;;;5055728;28;45667;-73
2021/07/07 10:43:05;;;;;;;;;5.00;5.00;;;;;;;;5058277;28;45474;-74
2021/07/07 10:45:30;;;;;;;;;6.00;5.25;;;;;;;;5056736;27;46233;-73
2021/07/07 10:48:16;;;;;;;;;6.00;4.75;;;;;;;;5058170;28;47909;-73
2021/07/07 10:50:41;;;;;;;;;3.50;3.50;;;;;;;;5047777;28;45942;-73
2021/07/07 10:53:21;;;;;;;;;4.67;4.00;;;;;;;;5055564;28;45495;-73
2021/07/07 10:55:46;;;;;;;;;6.00;4.25;;;;;;;;5051175;28;45266;-73
2021/07/07 10:58:23;;;;;;;;;4.00;4.00;;;;;;;;5050633;28;46720;-73
2021/07/07 11:00:48;;;;;;;;;6.25;4.25;;;;;;;;5049729;28;45602;-73
2021/07/07 11:03:17;;;;;;;;;4.00;4.00;;;;;;;;5049932;28;45573;-74
2021/07/07 11:05:42;;;;;;;;;6.25;4.50;;;;;;;;5049378;28;45359;-73
2021/07/07 11:08:14;;;;;;;;;6.00;4.33;;;;;;;;5050426;28;45951;-73
2021/07/07 11:10:55;;;;;;;;;7.00;4.00;;;;;;;;5058415;28;45662;-73
2021/07/07 11:13:20;;;;;;;;;4.75;4.75;;;;;;;;5051420;28;45363;-74
2021/07/07 11:15:47;;;;;;;;;3.25;3.25;;;;;;;;5038978;28;46003;-72
2021/07/07 11:18:19;;;;;;;;;5.50;5.00;;;;;;;;5043422;28;45994;-73
2021/07/07 11:20:48;;;;;;;;;5.25;5.25;;;;;;;;5050037;28;45707;-73
2021/07/07 11:23:13;;;;;;;;;5.25;4.00;;;;;;;;5048515;28;45569;-73
2021/07/07 11:25:39;;;;;;;;;5.67;5.00;;;;;;;;5049579;28;45458;-73
2021/07/07 11:28:08;;;;;;;;;5.00;5.00;;;;;;;;5049422;28;46318;-73
2021/07/07 11:30:33;;;;;;;;;8.00;5.00;;;;;;;;5052806;28;45687;-75
2021/07/07 11:33:03;;;;;;;;;5.75;5.75;;;;;;;;5053032;28;49156;-73
2021/07/07 11:35:30;;;;;;;;;5.50;4.75;;;;;;;;5062982;28;46134;-73
2021/07/07 11:37:57;;;;;;;;;7.50;5.00;;;;;;;;5050910;28;45482;-73
2021/07/07 11:40:22;;;;;;;;;6.75;6.00;;;;;;;;5073833;27;46021;-72
2021/07/07 11:43:08;;;;;;;;;7.25;4.75;;;;;;;;5056970;28;45858;-73
2021/07/07 11:45:35;;;;;;;;;6.00;5.00;;;;;;;;5048551;28;45666;-73
2021/07/07 11:48:09;;;;;;;;;9.50;6.00;;;;;;;;5040507;28;47515;-72
2021/07/07 11:50:36;;;;;;;;;6.75;5.00;;;;;;;;5051444;28;45754;-73
2021/07/07 11:53:05;;;;;;;;;5.75;3.25;;;;;;;;5053261;28;45578;-73
2021/07/07 11:55:44;;;;;;;;;5.00;5.00;;;;;;;;5054483;28;45470;-74
2021/07/07 11:58:10;;;;;;;;;5.25;2.25;;;;;;;;5054662;28;45658;-74
2021/07/07 12:00:38;;;;;;;;;6.00;5.25;;;;;;;;5050171;28;45441;-64
2021/07/07 12:03:04;;;;;;;;;7.00;5.25;;;;;;;;5050521;28;54647;-64
2021/07/07 12:05:29;;;;;;;;;7.25;4.50;;;;;;;;5053133;28;45538;-64
2021/07/07 12:08:14;;;;;;;;;5.00;2.25;;;;;;;;5056357;28;46230;-61
2021/07/07 12:10:39;;;;;;;;;4.50;4.00;;;;;;;;5050530;28;49076;-63
2021/07/07 12:13:21;;;;;;;;;5.00;5.00;;;;;;;;5049032;28;45400;-64
2021/07/07 12:15:46;;;;;;;;;4.75;4.00;;;;;;;;5050436;28;45664;-63
2021/07/07 12:18:27;;;;;;;;;4.33;3.00;;;;;;;;5045207;28;45602;-56
2021/07/07 12:20:53;;;;;;;;;5.25;4.50;;;;;;;;5048539;28;45651;-60
2021/07/07 12:23:18;;;;;;;;;7.25;5.25;;;;;;;;5052417;28;45511;-53
2021/07/07 12:25:43;;;;;;;;;4.00;4.00;;;;;;;;5047217;28;45503;-63
2021/07/07 12:28:09;;;;;;;;;5.00;5.00;;;;;;;;5052223;28;46068;-64
2021/07/07 12:30:36;;;;;;;;;5.00;4.25;;;;;;;;5046897;28;45510;-64
2021/07/07 12:33:01;;;;;;;;;4.50;4.50;;;;;;;;5049536;28;45521;-60
2021/07/07 12:35:26;;;;;;;;;5.00;5.00;;;;;;;;5052494;28;45787;-64
2021/07/07 12:37:52;;;;;;;;;9.25;5.75;;;;;;;;5046508;28;47171;-63
2021/07/07 12:40:21;;;;;;;;;6.00;4.00;;;;;;;;5045957;28;45482;-63
2021/07/07 12:42:51;;;;;;;;;4.00;4.00;;;;;;;;5051553;28;45581;-49
2021/07/07 12:45:17;;;;;;;;;5.25;3.25;;;;;;;;5044308;28;45548;-60
2021/07/07 12:47:43;;;;;;;;;5.50;4.75;;;;;;;;5048062;28;47341;-64
2021/07/07 12:50:16;;;;;;;;;4.00;3.25;;;;;;;;5052249;28;45857;-66
2021/07/07 12:52:42;;;;;;;;;4.25;4.25;;;;;;;;5047942;28;45515;-77
2021/07/07 12:55:12;;;;;;;;;3.25;3.25;;;;;;;;5049908;28;46301;-67
2021/07/07 12:57:49;;;;;;;;;3.50;2.00;;;;;;;;5047441;28;47139;-65
2021/07/07 13:00:30;;;;;;;;;3.50;2.50;;;;;;;;5048256;28;45366;-64
2021/07/07 13:02:55;;;;;;;;;4.75;3.00;;;;;;;;5040716;28;46148;-62
2021/07/07 13:05:28;;;;;;;;;4.00;3.00;;;;;;;;5044937;28;45839;-65
2021/07/07 13:07:54;;;;;;;;;2.00;2.00;;;;;;;;5051830;28;47181;-76
2021/07/07 13:10:26;;;;;;;;;4.75;3.00;;;;;;;;5048905;28;45695;-79
2021/07/07 13:12:51;;;;;;;;;6.00;3.25;;;;;;;;5055637;28;45621;-77
2021/07/07 13:15:16;;;;;;;;;3.00;1.67;;;;;;;;5050305;28;45508;-79
2021/07/07 13:17:57;;;;;;;;;3.00;3.00;;;;;;;;5048709;28;45303;-78
2021/07/07 13:20:22;;;;;;;;;3.50;2.00;;;;;;;;5044523;28;45806;-78
2021/07/07 13:22:58;;;;;;;;;3.00;3.00;;;;;;;;5051878;28;45492;-78
2021/07/07 13:25:24;;;;;;;;;3.00;2.00;;;;;;;;5052184;28;45522;-78
2021/07/07 13:27:49;;;;;;;;;1.25;1.25;;;;;;;;5048898;28;45769;-78
2021/07/07 13:30:25;;;;;;;;;3.00;1.67;;;;;;;;5044437;28;45459;-77
2021/07/07 13:32:50;;;;;;;;;4.50;1.75;;;;;;;;5049905;28;46253;-78
2021/07/07 13:35:15;;;;;;;;;2.00;2.00;;;;;;;;5047970;28;45544;-78
2021/07/07 13:37:43;;;;;;;;;2.33;1.00;;;;;;;;5057445;28;45387;-78
2021/07/07 13:40:10;;;;;;;;;2.50;1.75;;;;;;;;5051840;28;45643;-78
2021/07/07 13:42:36;;;;;;;;;1.00;1.00;;;;;;;;5047121;28;45473;-78
2021/07/07 13:45:03;;;;;;;;;2.25;1.75;;;;;;;;5048061;28;45456;-80
2021/07/07 13:47:28;;;;;;;;;1.75;1.75;;;;;;;;5055585;28;46661;-80
2021/07/07 13:49:54;;;;;;;;;2.00;2.00;;;;;;;;5051524;28;45324;-79
2021/07/07 13:52:20;;;;;;;;;3.25;1.75;;;;;;;;5046342;28;45449;-79
2021/07/07 13:54:45;;;;;;;;;2.50;2.00;;;;;;;;5041817;28;45548;-78
2021/07/07 13:57:11;;;;;;;;;2.50;1.75;;;;;;;;5050231;28;45335;-82
2021/07/07 13:59:37;;;;;;;;;1.50;1.50;;;;;;;;5041284;28;45456;-76
2021/07/07 14:02:03;;;;;;;;;1.00;1.00;;;;;;;;5046940;28;45597;-77
2021/07/07 14:04:29;;;;;;;;;2.00;2.00;;;;;;;;5046370;28;45500;-78
2021/07/07 14:06:54;;;;;;;;;6.75;2.00;;;;;;;;5039219;28;46095;-77
2021/07/07 14:09:20;;;;;;;;;3.75;1.75;;;;;;;;5044315;28;45640;-77
2021/07/07 14:11:45;;;;;;;;;4.00;1.50;;;;;;;;5043534;28;45637;-79
2021/07/07 14:14:11;;;;;;;;;2.00;2.00;;;;;;;;5041198;28;46485;-78
2021/07/07 14:16:36;;;;;;;;;2.00;2.00;;;;;;;;5049015;28;45880;-78
2021/07/07 14:19:01;;;;;;;;;1.67;1.67;;;;;;;;5047659;28;50765;-78
2021/07/07 14:21:27;;;;;;;;;3.00;3.00;;;;;;;;5048786;28;45694;-78
2021/07/07 14:23:52;;;;;;;;;2.00;2.00;;;;;;;;5047617;28;45689;-78
2021/07/07 14:26:17;;;;;;;;;1.00;1.00;;;;;;;;5050785;28;45619;-77
2021/07/07 14:28:43;;;;;;;;;2.00;2.00;;;;;;;;5049619;28;45668;-79
2021/07/07 14:31:09;;;;;;;;;3.25;3.25;;;;;;;;5051747;28;45515;-79
2021/07/07 14:33:34;;;;;;;;;4.00;3.75;;;;;;;;5048493;28;45480;-80
2021/07/07 14:35:59;;;;;;;;;3.00;3.00;;;;;;;;5046095;28;47551;-76
2021/07/07 14:38:25;;;;;;;;;3.00;3.00;;;;;;;;5050335;28;45451;-79